Pellston Regional Airport of Emmet County Airport Pellston US
ICAO: KPLN
IATA: PLN
Category: Medium
Scheduled Services: Yes

Elevation: 721 ft
TransAlt. 18000 ft.

Airport Communications:
ASOS:119.025
MINNEAPOLIS CNTR:134.6
LANSING RDO:122.2
CTAF/UNICOM:123

KPLN Zoom In..

If you have problems with the map follow the link
https://www.worldairports.se/pages/airport.php?
ICAO=KPLN

Runways:

(A) RW 05 length 5401 ft width 150 ft
---- / hdg 51

(B) RW 14 length 6513 ft width 150 ft
---- / hdg 141

(C) RW 23 length 5401 ft width 150 ft
---- / hdg 231

(D) RW 32 length 6513 ft width 150 ft
ILS 111.30 / hdg 321

Location; KPLN
Day. 20 / Time. 20.54 Zulu
* Altimeter: 29.84
* Temperature: -02° c. -28.4°f.
* Wind from: 110° Speed 14 kn with Gusts up to 21 kn.
Dewpoint: -08° c.
Visibility: 10 Statute Miles.
Clouds: Overcast 6500 ft.

KPLN 202054Z AUTO 11014G21KT 10SM OVC065 M02/M08 A2984 RMK AO2 PRESFR SLP118 60000 T10221078 56075


Wind From 110°
Speed 14 kn.

 
 
jpsmedia.com for Web Design worldairports.se 2019   terms of use